Time;durP1;ratioP1;P1;durP2;ratioP2;P2;SDS_P1;SDS_P2;PMS_P1;PMS_P2;Temp;Humidity;BMP_temperature;BMP_pressure;BME280_temperature;BME280_humidity;BME280_pressure;Samples;Min_cycle;Max_cycle;Signal;HPM_P1;HPM_P2
2021/03/25 00:01:50;;;;;;;57.40;37.67;;;7.90;99.90;;;;;;5007141;28;20233;-50
2021/03/25 00:04:18;;;;;;;62.13;43.83;;;7.70;99.90;;;;;;5007091;28;21180;-54
2021/03/25 00:06:51;;;;;;;63.50;42.13;;;7.70;99.90;;;;;;5007715;28;20726;-52
2021/03/25 00:09:21;;;;;;;62.03;43.70;;;7.60;99.90;;;;;;5007201;28;20249;-52
2021/03/25 00:11:49;;;;;;;66.97;43.53;;;7.40;99.90;;;;;;5006694;28;20257;-51
2021/03/25 00:14:17;;;;;;;65.90;45.00;;;7.20;99.90;;;;;;5008677;28;20237;-52
2021/03/25 00:16:45;;;;;;;61.87;42.70;;;7.10;99.90;;;;;;5011300;28;20303;-52
2021/03/25 00:19:13;;;;;;;63.97;42.23;;;7.10;99.90;;;;;;5011017;28;20640;-51
2021/03/25 00:21:40;;;;;;;66.13;43.73;;;7.20;99.90;;;;;;5011034;28;20648;-50
2021/03/25 00:24:12;;;;;;;66.40;44.67;;;7.10;99.90;;;;;;5011255;28;20320;-50
2021/03/25 00:26:40;;;;;;;68.70;45.53;;;7.10;99.90;;;;;;5011505;28;20237;-54
2021/03/25 00:29:09;;;;;;;75.70;47.93;;;7.00;99.90;;;;;;5008862;28;20264;-50
2021/03/25 00:31:37;;;;;;;86.70;49.53;;;6.90;99.90;;;;;;5003891;28;20288;-50
2021/03/25 00:34:05;;;;;;;94.67;50.07;;;6.90;99.90;;;;;;5009696;28;20244;-53
2021/03/25 00:36:32;;;;;;;66.60;40.70;;;6.80;99.90;;;;;;4994715;28;20329;-54
2021/03/25 00:39:00;;;;;;;72.30;41.33;;;6.90;99.90;;;;;;5010580;28;20237;-54
2021/03/25 00:41:28;;;;;;;81.93;48.33;;;7.00;99.90;;;;;;5009532;28;20245;-50
2021/03/25 00:43:55;;;;;;;79.33;47.57;;;6.90;99.90;;;;;;5010614;28;20303;-54
2021/03/25 00:46:23;;;;;;;79.37;47.87;;;6.80;99.90;;;;;;5011119;28;20636;-55
2021/03/25 00:48:51;;;;;;;73.67;44.53;;;6.80;99.90;;;;;;5010466;28;20237;-50
2021/03/25 00:51:19;;;;;;;78.43;46.77;;;6.80;99.90;;;;;;5008645;28;20249;-54
2021/03/25 00:53:46;;;;;;;74.13;44.97;;;6.70;99.90;;;;;;5012997;28;20893;-51
2021/03/25 00:56:14;;;;;;;69.10;41.37;;;6.80;99.90;;;;;;5009322;28;20265;-53
2021/03/25 00:58:42;;;;;;;67.73;40.40;;;6.90;99.90;;;;;;5009662;28;20268;-51
2021/03/25 01:01:09;;;;;;;72.10;42.53;;;7.10;99.90;;;;;;5008135;28;20241;-53
2021/03/25 01:03:37;;;;;;;59.97;38.43;;;7.20;99.90;;;;;;5009136;28;20233;-51
2021/03/25 01:06:04;;;;;;;68.67;43.60;;;7.20;99.90;;;;;;5010544;28;20303;-54
2021/03/25 01:08:34;;;;;;;68.40;42.70;;;7.20;99.90;;;;;;4989357;28;20292;-54
2021/03/25 01:11:10;;;;;;;62.67;38.77;;;7.20;99.90;;;;;;4988739;28;20329;-54
2021/03/25 01:13:40;;;;;;;62.70;41.67;;;7.20;99.90;;;;;;4990769;28;20237;-54
2021/03/25 01:16:14;;;;;;;54.20;36.57;;;7.10;99.90;;;;;;4971087;28;20238;-50
2021/03/25 01:18:42;;;;;;;61.90;38.93;;;7.30;99.90;;;;;;4978053;28;20253;-51
2021/03/25 01:21:11;;;;;;;56.57;37.27;;;7.40;99.90;;;;;;4990416;28;20277;-51
2021/03/25 01:23:38;;;;;;;61.37;39.13;;;7.50;99.90;;;;;;5000624;28;20245;-51
2021/03/25 01:26:06;;;;;;;59.67;37.10;;;7.50;99.90;;;;;;4985869;28;20296;-53
2021/03/25 01:28:33;;;;;;;55.40;34.93;;;7.50;99.90;;;;;;5000749;28;20569;-51
2021/03/25 01:31:17;;;;;;;56.17;36.21;;;7.60;99.90;;;;;;2891215;28;10003365;-54
2021/03/25 01:33:45;;;;;;;58.10;38.63;;;7.80;99.90;;;;;;3959102;28;10001519;-50
2021/03/25 01:36:13;;;;;;;64.20;41.33;;;7.60;99.90;;;;;;5025091;28;20519;-51
2021/03/25 01:38:42;;;;;;;60.53;40.13;;;7.50;99.90;;;;;;5009230;28;20312;-51
2021/03/25 01:41:23;;;;;;;62.57;42.63;;;7.50;99.90;;;;;;5007622;28;20475;-50
2021/03/25 01:43:50;;;;;;;60.33;37.43;;;7.60;99.90;;;;;;5024622;28;20240;-52
2021/03/25 01:46:31;;;;;;;58.77;38.73;;;7.80;99.90;;;;;;5003961;28;20244;-53
2021/03/25 01:49:03;;;;;;;59.47;39.17;;;7.90;99.90;;;;;;4987023;28;20226;-50
2021/03/25 01:51:56;;;;;;;57.53;37.90;;;8.10;99.90;;;;;;4999764;28;20572;-51
2021/03/25 01:55:03;;;;;;;65.53;40.77;;;8.10;99.90;;;;;;5002950;28;20245;-52
2021/03/25 01:58:03;;;;;;;63.47;42.60;;;8.00;99.90;;;;;;5016106;28;20353;-52
2021/03/25 02:00:43;;;;;;;64.23;40.73;;;7.80;99.90;;;;;;5008488;28;20237;-52
2021/03/25 02:03:44;;;;;;;69.67;45.70;;;7.90;99.90;;;;;;5008713;28;20272;-53
2021/03/25 02:06:27;;;;;;;65.60;40.23;;;7.80;99.90;;;;;;5005534;28;20328;-51
2021/03/25 02:09:07;;;;;;;72.23;43.27;;;7.90;99.90;;;;;;4988702;28;20242;-51
2021/03/25 02:12:01;;;;;;;73.20;45.33;;;7.80;99.90;;;;;;5005773;28;20716;-53
2021/03/25 02:14:37;;;;;;;79.93;48.30;;;7.80;99.90;;;;;;5007204;28;20730;-51
2021/03/25 02:17:13;;;;;;;77.63;46.63;;;7.80;99.90;;;;;;5007526;28;20233;-52
2021/03/25 02:20:41;;;;;;;81.43;50.37;;;7.70;99.90;;;;;;5006827;28;20431;-52
2021/03/25 02:23:53;;;;;;;79.50;48.43;;;7.60;99.90;;;;;;5000565;28;20245;-51
2021/03/25 02:26:28;;;;;;;73.47;44.53;;;7.40;99.90;;;;;;4997454;28;20234;-50
2021/03/25 02:29:32;;;;;;;77.23;48.70;;;7.50;99.90;;;;;;4989004;28;21059;-50
2021/03/25 02:32:05;;;;;;;70.43;47.13;;;7.40;99.90;;;;;;4976953;28;20639;-50
2021/03/25 02:34:39;;;;;;;64.33;40.77;;;7.20;99.90;;;;;;4987581;28;20241;-51
2021/03/25 02:37:12;;;;;;;65.63;41.20;;;7.30;99.90;;;;;;5005853;28;20234;-50
2021/03/25 02:39:52;;;;;;;73.20;46.23;;;7.40;99.90;;;;;;5006313;28;20259;-50
2021/03/25 02:42:47;;;;;;;70.97;45.07;;;7.20;99.90;;;;;;4997761;28;20323;-50
2021/03/25 02:45:21;;;;;;;63.13;40.07;;;7.20;99.90;;;;;;5023954;28;20641;-51
2021/03/25 02:47:53;;;;;;;63.87;41.30;;;7.40;99.90;;;;;;5008203;28;20245;-50
2021/03/25 02:50:27;;;;;;;69.43;44.93;;;7.40;99.90;;;;;;5005321;28;20233;-53
2021/03/25 02:53:00;;;;;;;63.23;41.03;;;7.30;99.90;;;;;;5005742;28;20241;-52
2021/03/25 02:55:28;;;;;;;72.77;45.10;;;7.30;99.90;;;;;;5007020;28;20233;-52
2021/03/25 02:58:06;;;;;;;73.47;45.87;;;7.20;99.90;;;;;;5014172;28;20239;-53
2021/03/25 03:00:42;;;;;;;67.63;43.00;;;7.00;99.90;;;;;;4991474;28;20237;-53
2021/03/25 03:03:18;;;;;;;69.43;45.43;;;7.00;99.90;;;;;;5006673;28;20245;-54
2021/03/25 03:06:06;;;;;;;63.30;40.70;;;6.90;99.90;;;;;;5008188;28;20256;-50
2021/03/25 03:08:46;;;;;;;58.30;36.57;;;6.90;99.90;;;;;;5004938;28;20324;-51
2021/03/25 03:11:21;;;;;;;65.90;41.97;;;7.00;99.90;;;;;;5005292;28;20257;-54
2021/03/25 03:13:55;;;;;;;63.70;42.23;;;7.20;99.90;;;;;;4988506;28;20261;-53
2021/03/25 03:16:28;;;;;;;65.17;44.30;;;7.00;99.90;;;;;;4990586;28;20325;-54
2021/03/25 03:19:03;;;;;;;70.63;45.13;;;6.90;99.90;;;;;;5018736;28;20249;-50
2021/03/25 03:21:39;;;;;;;68.27;43.23;;;6.80;99.90;;;;;;4985181;28;20241;-51
2021/03/25 03:24:24;;;;;;;60.23;37.43;;;6.70;99.90;;;;;;4998701;28;20331;-51
2021/03/25 03:27:13;;;;;;;69.00;43.40;;;6.80;99.90;;;;;;5000122;28;20253;-50
2021/03/25 03:29:42;;;;;;;65.73;42.20;;;7.00;99.90;;;;;;4977131;28;20683;-51
2021/03/25 03:32:19;;;;;;;53.80;34.93;;;7.00;99.90;;;;;;5004897;28;20237;-53
2021/03/25 03:34:58;;;;;;;61.07;39.57;;;7.10;99.90;;;;;;5007852;28;20258;-50
2021/03/25 03:37:34;;;;;;;61.97;38.90;;;7.10;99.90;;;;;;5006676;28;20251;-51
2021/03/25 03:40:22;;;;;;;55.07;35.53;;;7.10;99.90;;;;;;5005839;28;20241;-50
2021/03/25 03:43:01;;;;;;;55.30;33.27;;;7.30;99.90;;;;;;5023065;28;20851;-53
2021/03/25 03:45:35;;;;;;;52.87;33.90;;;7.30;99.90;;;;;;4986459;28;20238;-51
2021/03/25 03:48:25;;;;;;;51.20;34.33;;;7.40;99.90;;;;;;5009050;28;20241;-52
2021/03/25 03:50:57;;;;;;;54.70;34.87;;;7.30;99.90;;;;;;5004691;28;20229;-50
2021/03/25 03:53:27;;;;;;;54.80;35.17;;;7.30;99.90;;;;;;5007220;28;20765;-51
2021/03/25 03:56:08;;;;;;;56.20;39.10;;;7.40;99.90;;;;;;4990607;28;20578;-51
2021/03/25 03:58:44;;;;;;;54.53;37.37;;;7.20;99.90;;;;;;5005990;28;20238;-51
2021/03/25 04:01:21;;;;;;;55.40;38.97;;;7.10;99.90;;;;;;5002597;28;20236;-53
2021/03/25 04:03:59;;;;;;;52.57;34.83;;;6.90;99.90;;;;;;5006019;28;20265;-51
2021/03/25 04:06:56;;;;;;;58.00;37.63;;;7.10;99.90;;;;;;5010944;28;20229;-51
2021/03/25 04:10:03;;;;;;;53.33;34.60;;;7.00;99.90;;;;;;5019398;28;20252;-51
2021/03/25 04:12:40;;;;;;;64.07;40.83;;;7.00;99.90;;;;;;5009861;28;20316;-53
2021/03/25 04:15:17;;;;;;;52.97;36.53;;;7.10;99.90;;;;;;5026319;28;20670;-54
2021/03/25 04:17:56;;;;;;;56.27;37.30;;;7.00;99.90;;;;;;5008143;28;20267;-53
2021/03/25 04:20:47;;;;;;;52.60;36.07;;;7.10;99.90;;;;;;4994534;28;20707;-54
2021/03/25 04:23:34;;;;;;;50.30;33.43;;;7.00;99.90;;;;;;5003621;28;20244;-51
2021/03/25 04:26:12;;;;;;;48.87;33.33;;;7.10;99.90;;;;;;5003289;28;20244;-52
2021/03/25 04:28:44;;;;;;;47.97;31.73;;;7.10;99.90;;;;;;4991043;28;20233;-52
2021/03/25 04:31:11;;;;;;;56.63;35.77;;;7.40;99.90;;;;;;4990678;28;20242;-50
2021/03/25 04:33:40;;;;;;;52.87;33.40;;;7.30;99.90;;;;;;5004287;28;20641;-51
2021/03/25 04:36:21;;;;;;;53.97;35.50;;;7.20;99.90;;;;;;4999222;28;20689;-50
2021/03/25 04:38:50;;;;;;;50.37;33.07;;;7.20;99.90;;;;;;5006222;28;20296;-54
2021/03/25 04:41:18;;;;;;;63.37;39.47;;;7.40;99.90;;;;;;4990775;28;20578;-52
2021/03/25 04:43:47;;;;;;;47.27;30.13;;;7.50;99.90;;;;;;5004688;28;20323;-50
2021/03/25 04:46:31;;;;;;;57.27;37.80;;;7.70;99.90;;;;;;5001782;28;20236;-50
2021/03/25 04:49:04;;;;;;;53.87;34.93;;;7.40;99.90;;;;;;5021399;28;20797;-52
2021/03/25 04:51:32;;;;;;;55.10;36.00;;;7.40;99.90;;;;;;5011997;28;20236;-52
2021/03/25 04:54:27;;;;;;;51.53;33.37;;;7.20;99.90;;;;;;5018957;28;20241;-54
2021/03/25 04:56:59;;;;;;;53.17;32.63;;;7.50;99.90;;;;;;4990904;28;20246;-51
2021/03/25 04:59:26;;;;;;;51.83;33.13;;;7.60;99.90;;;;;;4989313;28;20308;-53
2021/03/25 05:01:54;;;;;;;50.20;32.40;;;7.70;99.90;;;;;;4992445;28;20640;-54
2021/03/25 05:04:23;;;;;;;48.00;32.47;;;7.80;99.90;;;;;;4987479;28;20333;-54
2021/03/25 05:06:54;;;;;;;49.13;32.47;;;7.70;99.90;;;;;;4992277;28;20242;-50
2021/03/25 05:09:27;;;;;;;48.17;32.10;;;7.60;99.90;;;;;;5008478;28;20303;-51
2021/03/25 05:11:55;;;;;;;54.30;37.20;;;7.60;99.90;;;;;;5010310;28;20237;-51
2021/03/25 05:14:26;;;;;;;52.90;36.67;;;7.40;99.90;;;;;;5009225;28;20249;-51
2021/03/25 05:17:11;;;;;;;51.33;33.87;;;7.20;99.90;;;;;;5008102;28;20233;-51
2021/03/25 05:19:54;;;;;;;58.80;35.27;;;7.20;99.90;;;;;;4993590;28;20261;-53
2021/03/25 05:22:31;;;;;;;49.77;33.07;;;7.20;99.90;;;;;;4981016;28;20242;-52
2021/03/25 05:25:07;;;;;;;59.13;37.37;;;7.30;99.90;;;;;;4980686;28;20245;-51
2021/03/25 05:27:44;;;;;;;49.60;32.87;;;7.40;99.90;;;;;;4971220;28;20590;-52
2021/03/25 05:30:18;;;;;;;55.70;36.27;;;7.50;99.90;;;;;;4972091;28;20244;-51
2021/03/25 05:32:50;;;;;;;52.03;31.07;;;7.40;99.90;;;;;;4971010;28;20238;-50
2021/03/25 05:35:23;;;;;;;55.23;33.40;;;7.50;99.90;;;;;;4971379;28;20611;-51
2021/03/25 05:37:50;;;;;;;53.43;34.00;;;7.40;99.90;;;;;;4986190;28;20241;-51
2021/03/25 05:40:24;;;;;;;51.77;33.00;;;7.50;99.90;;;;;;4988826;28;20244;-52
2021/03/25 05:42:59;;;;;;;52.97;35.17;;;7.40;99.90;;;;;;4989728;28;20706;-50
2021/03/25 05:45:52;;;;;;;58.53;34.00;;;7.40;99.90;;;;;;4984256;28;20324;-50
2021/03/25 05:49:01;;;;;;;54.40;36.97;;;7.70;99.90;;;;;;5012143;28;20693;-52
2021/03/25 05:51:38;;;;;;;59.07;34.77;;;7.50;99.90;;;;;;4966946;28;20710;-53
2021/03/25 05:54:29;;;;;;;57.87;36.40;;;7.70;99.90;;;;;;4976287;28;20245;-51
2021/03/25 05:57:18;;;;;;;63.20;38.23;;;8.00;99.90;;;;;;4993131;28;20235;-52
2021/03/25 05:59:52;;;;;;;58.37;34.40;;;8.10;99.90;;;;;;4999985;28;20782;-55
2021/03/25 06:02:27;;;;;;;55.00;35.40;;;8.10;99.90;;;;;;5007694;28;20240;-53
2021/03/25 06:04:54;;;;;;;57.70;35.10;;;8.10;99.90;;;;;;5005596;28;20263;-52
2021/03/25 06:08:06;;;;;;;56.87;36.70;;;8.00;99.90;;;;;;5000720;28;20413;-55
2021/03/25 06:10:49;;;;;;;52.80;35.17;;;7.70;99.90;;;;;;4980556;28;20317;-50
2021/03/25 06:13:44;;;;;;;52.27;33.57;;;7.70;99.90;;;;;;4996540;28;20319;-51
2021/03/25 06:16:36;;;;;;;53.60;33.47;;;7.50;99.90;;;;;;4982568;28;20297;-50
2021/03/25 06:19:18;;;;;;;53.97;32.43;;;7.40;99.90;;;;;;4981781;28;20579;-51
2021/03/25 06:22:09;;;;;;;54.20;35.27;;;7.40;99.90;;;;;;4983433;28;20714;-52
2021/03/25 06:25:21;;;;;;;55.77;32.00;;;7.40;99.90;;;;;;4999145;28;20267;-53
2021/03/25 06:28:16;;;;;;;56.63;35.33;;;7.50;99.90;;;;;;4995760;28;20303;-52
2021/03/25 06:30:58;;;;;;;58.20;35.03;;;7.40;99.90;;;;;;4991109;28;20243;-55
2021/03/25 06:33:33;;;;;;;52.70;32.53;;;7.30;99.90;;;;;;5007032;28;20767;-51
2021/03/25 06:36:05;;;;;;;55.30;34.80;;;7.40;99.90;;;;;;5001182;28;20241;-53
2021/03/25 06:38:38;;;;;;;49.57;32.50;;;7.30;99.90;;;;;;4995520;28;20784;-54
2021/03/25 06:41:12;;;;;;;54.30;34.20;;;7.30;99.90;;;;;;4996185;28;20265;-52
2021/03/25 06:43:48;;;;;;;51.87;34.23;;;7.40;99.90;;;;;;4998977;28;20243;-54
2021/03/25 06:46:26;;;;;;;57.40;35.17;;;7.40;99.90;;;;;;4988816;28;20225;-55
2021/03/25 06:48:57;;;;;;;52.33;34.50;;;7.40;99.90;;;;;;4990071;28;20268;-53
2021/03/25 06:51:28;;;;;;;53.97;32.33;;;7.40;99.90;;;;;;4991024;28;20263;-53
2021/03/25 06:54:09;;;;;;;53.57;35.07;;;7.60;99.90;;;;;;4999848;28;20265;-55
2021/03/25 06:56:40;;;;;;;55.70;34.60;;;7.80;99.90;;;;;;4996810;28;20283;-55
2021/03/25 06:59:15;;;;;;;51.33;34.23;;;7.80;99.90;;;;;;4995793;28;20389;-54
2021/03/25 07:01:46;;;;;;;53.97;32.30;;;7.90;99.90;;;;;;4997202;28;20236;-52
2021/03/25 07:04:21;;;;;;;54.57;35.60;;;8.10;99.90;;;;;;5004669;28;20245;-53
2021/03/25 07:06:50;;;;;;;53.30;34.83;;;8.10;99.90;;;;;;5003583;28;20321;-55
2021/03/25 07:09:30;;;;;;;52.03;34.37;;;8.10;99.90;;;;;;4999692;28;20240;-54
2021/03/25 07:11:59;;;;;;;51.93;32.97;;;8.20;99.90;;;;;;4999710;28;20692;-55
2021/03/25 07:14:37;;;;;;;48.90;34.27;;;8.30;99.90;;;;;;4988427;28;20237;-53
2021/03/25 07:17:09;;;;;;;52.73;34.07;;;8.30;99.90;;;;;;4998131;28;20265;-55
2021/03/25 07:19:39;;;;;;;49.47;31.93;;;8.40;99.90;;;;;;4999407;28;20580;-52
2021/03/25 07:22:21;;;;;;;56.13;36.00;;;8.60;99.90;;;;;;5001141;28;20234;-54
2021/03/25 07:24:50;;;;;;;52.90;34.80;;;8.70;99.90;;;;;;4994015;28;20238;-54
2021/03/25 07:27:20;;;;;;;51.13;33.07;;;8.70;99.90;;;;;;5000939;28;20307;-52
2021/03/25 07:30:00;;;;;;;50.27;34.13;;;8.80;99.90;;;;;;4989839;28;20245;-53
2021/03/25 07:32:36;;;;;;;47.00;33.67;;;9.00;99.90;;;;;;4992158;28;20238;-51
2021/03/25 07:35:29;;;;;;;47.77;34.43;;;9.20;99.90;;;;;;5004170;28;20706;-53
2021/03/25 07:37:58;;;;;;;50.80;35.00;;;9.40;99.90;;;;;;4975870;28;20780;-51
2021/03/25 07:40:34;;;;;;;53.13;35.33;;;9.50;99.90;;;;;;4985136;28;20709;-51
2021/03/25 07:43:16;;;;;;;45.23;29.90;;;9.80;99.90;;;;;;4977518;28;20245;-53
2021/03/25 07:46:08;;;;;;;45.40;31.57;;;10.00;99.90;;;;;;4980442;28;20244;-54
2021/03/25 07:48:36;;;;;;;50.50;32.20;;;10.30;99.90;;;;;;4968886;28;20246;-54
2021/03/25 07:51:14;;;;;;;50.90;35.00;;;10.50;99.90;;;;;;4975951;28;20598;-55
2021/03/25 07:53:41;;;;;;;47.80;33.70;;;10.80;99.90;;;;;;4986315;28;20246;-55
2021/03/25 07:56:12;;;;;;;46.13;33.30;;;11.00;99.90;;;;;;4996562;28;20599;-54
2021/03/25 07:58:42;;;;;;;45.80;32.83;;;11.10;99.90;;;;;;5011842;28;20331;-55
2021/03/25 08:01:13;;;;;;;45.23;34.80;;;11.20;99.90;;;;;;5026658;28;20266;-55
2021/03/25 08:03:50;;;;;;;46.33;31.63;;;11.40;99.90;;;;;;5027113;28;20261;-55
2021/03/25 08:06:24;;;;;;;45.13;31.30;;;11.50;99.90;;;;;;4998141;28;20241;-52
2021/03/25 08:09:06;;;;;;;44.17;31.23;;;11.70;99.90;;;;;;4998151;28;20238;-56
2021/03/25 08:11:48;;;;;;;45.33;32.57;;;11.80;99.90;;;;;;5000971;28;20235;-56
2021/03/25 08:14:21;;;;;;;46.23;31.50;;;12.00;99.90;;;;;;4996471;28;20261;-55
2021/03/25 08:16:52;;;;;;;42.03;30.07;;;12.10;99.90;;;;;;5001428;28;20243;-55
2021/03/25 08:19:39;;;;;;;45.43;31.00;;;12.20;99.90;;;;;;5009941;28;20233;-55
2021/03/25 08:22:28;;;;;;;39.37;29.53;;;12.30;99.90;;;;;;5007172;28;20245;-55
2021/03/25 08:25:17;;;;;;;45.13;30.17;;;12.40;99.90;;;;;;4987850;28;20235;-52
2021/03/25 08:28:03;;;;;;;43.53;30.80;;;12.60;99.90;;;;;;4978933;28;20250;-53
2021/03/25 08:31:17;;;;;;;40.17;30.60;;;12.60;99.90;;;;;;4989947;28;20303;-55
2021/03/25 08:34:19;;;;;;;41.70;30.43;;;12.80;99.90;;;;;;4997862;28;20249;-51
2021/03/25 08:37:12;;;;;;;39.97;29.37;;;12.90;99.90;;;;;;5003770;28;20234;-53
2021/03/25 08:39:50;;;;;;;40.37;29.93;;;13.20;99.90;;;;;;4997175;28;20244;-55
2021/03/25 08:42:28;;;;;;;40.40;29.13;;;13.40;99.90;;;;;;5002001;28;20569;-54
2021/03/25 08:45:09;;;;;;;41.00;29.93;;;13.20;99.90;;;;;;5010482;28;20227;-55
2021/03/25 08:47:47;;;;;;;40.93;30.60;;;13.30;99.90;;;;;;5007331;28;20244;-55
2021/03/25 08:50:41;;;;;;;40.33;30.37;;;13.40;99.90;;;;;;4990446;28;20591;-55
2021/03/25 08:53:31;;;;;;;41.40;30.67;;;13.30;99.90;;;;;;4996580;28;20663;-53
2021/03/25 08:56:03;;;;;;;39.00;29.43;;;13.60;99.90;;;;;;5010536;28;20646;-54
2021/03/25 08:58:36;;;;;;;38.90;30.03;;;13.80;99.90;;;;;;5006789;28;20238;-54
2021/03/25 09:01:11;;;;;;;38.77;28.43;;;13.80;99.90;;;;;;5029665;28;20738;-55
2021/03/25 09:03:42;;;;;;;38.20;28.97;;;14.00;99.90;;;;;;4999720;28;20587;-56
2021/03/25 09:06:16;;;;;;;38.27;28.67;;;14.20;99.90;;;;;;4985689;28;20340;-53
2021/03/25 09:08:46;;;;;;;39.70;30.20;;;14.50;99.90;;;;;;5008268;28;20286;-55
2021/03/25 09:11:18;;;;;;;37.53;29.13;;;14.80;99.90;;;;;;5006580;28;20291;-53
2021/03/25 09:13:50;;;;;;;40.40;29.20;;;14.90;99.90;;;;;;5009099;28;20256;-51
2021/03/25 09:16:24;;;;;;;35.17;27.53;;;15.00;99.90;;;;;;5007366;28;20339;-53
2021/03/25 09:18:53;;;;;;;35.23;27.90;;;14.80;99.90;;;;;;5009199;28;20714;-54
2021/03/25 09:21:24;;;;;;;36.33;26.37;;;14.70;99.90;;;;;;5009552;28;20735;-51
2021/03/25 09:24:06;;;;;;;32.90;25.43;;;14.60;99.90;;;;;;5005685;28;20603;-53
2021/03/25 09:27:03;;;;;;;36.90;26.30;;;14.80;99.90;;;;;;4994597;28;20321;-54
2021/03/25 09:30:27;;;;;;;34.47;25.63;;;15.10;99.90;;;;;;4989819;28;20243;-55
2021/03/25 09:32:55;;;;;;;32.23;24.80;;;15.20;99.90;;;;;;5001518;28;20235;-55
2021/03/25 09:35:44;;;;;;;36.57;27.33;;;15.00;99.90;;;;;;4997722;28;20248;-54
2021/03/25 09:38:26;;;;;;;34.97;27.50;;;15.20;99.90;;;;;;5024037;28;20237;-55
2021/03/25 09:40:54;;;;;;;33.63;25.87;;;15.10;99.90;;;;;;5009322;28;20261;-52
2021/03/25 09:43:43;;;;;;;34.77;27.67;;;15.20;99.90;;;;;;5007556;28;20230;-55
2021/03/25 09:46:39;;;;;;;33.17;27.13;;;15.40;99.90;;;;;;4997592;28;20448;-53
2021/03/25 09:49:30;;;;;;;34.73;26.07;;;15.60;99.90;;;;;;4998859;28;20744;-53
2021/03/25 09:52:29;;;;;;;37.07;26.73;;;15.70;99.90;;;;;;4998639;28;20241;-54
2021/03/25 09:55:18;;;;;;;34.90;26.87;;;15.90;99.90;;;;;;4997496;28;20248;-51
2021/03/25 09:57:53;;;;;;;35.27;27.03;;;15.80;99.90;;;;;;5000309;28;20238;-54
2021/03/25 10:00:57;;;;;;;32.47;24.87;;;15.90;99.90;;;;;;5001406;28;20252;-53
2021/03/25 10:04:03;;;;;;;32.33;23.57;;;15.70;99.90;;;;;;4999981;28;20248;-53
2021/03/25 10:06:50;;;;;;;31.63;23.53;;;15.90;99.90;;;;;;4982294;28;20226;-54
2021/03/25 10:09:54;;;;;;;31.83;23.93;;;16.00;99.90;;;;;;4985631;28;20312;-55
2021/03/25 10:12:58;;;;;;;31.37;24.73;;;16.40;99.90;;;;;;4976639;28;20292;-52
2021/03/25 10:15:47;;;;;;;31.00;24.00;;;16.80;99.90;;;;;;4980271;28;20268;-56
2021/03/25 10:18:57;;;;;;;30.67;22.40;;;16.90;99.90;;;;;;4993709;28;20692;-56
2021/03/25 10:22:03;;;;;;;30.87;22.73;;;16.40;99.90;;;;;;4999688;28;20311;-53
2021/03/25 10:24:42;;;;;;;26.93;20.13;;;15.90;99.90;;;;;;4999284;28;20283;-55
2021/03/25 10:27:24;;;;;;;24.10;20.87;;;16.10;99.90;;;;;;4997860;28;20686;-55
2021/03/25 10:29:52;;;;;;;25.20;20.10;;;16.10;99.90;;;;;;4978898;28;20273;-55
2021/03/25 10:32:28;;;;;;;26.53;20.83;;;16.10;99.90;;;;;;5001342;28;20268;-54
2021/03/25 10:35:00;;;;;;;26.67;20.97;;;16.20;99.90;;;;;;5006057;28;20508;-56
2021/03/25 10:37:37;;;;;;;25.97;21.23;;;15.80;99.90;;;;;;5008189;28;20315;-53
2021/03/25 10:40:16;;;;;;;27.37;20.80;;;15.70;99.90;;;;;;5006446;28;20302;-55
2021/03/25 10:42:54;;;;;;;24.67;19.03;;;15.20;99.90;;;;;;5007281;28;20252;-54
2021/03/25 10:45:32;;;;;;;25.73;19.07;;;15.00;99.90;;;;;;5007867;28;20241;-55
2021/03/25 10:48:25;;;;;;;20.87;17.03;;;15.50;99.90;;;;;;4993519;28;20230;-51
2021/03/25 10:50:58;;;;;;;22.90;17.70;;;15.90;99.90;;;;;;4988383;28;20265;-55
2021/03/25 10:53:33;;;;;;;21.77;16.40;;;15.70;99.90;;;;;;4994385;28;20267;-53
2021/03/25 10:56:13;;;;;;;22.37;16.97;;;15.50;99.90;;;;;;5007924;28;20789;-55
2021/03/25 10:58:46;;;;;;;22.50;16.63;;;16.10;99.90;;;;;;5006309;28;20236;-52
2021/03/25 11:01:23;;;;;;;22.73;17.10;;;16.70;99.90;;;;;;5003460;28;20241;-51
2021/03/25 11:03:50;;;;;;;21.27;16.57;;;16.70;99.90;;;;;;5020082;28;20229;-53
2021/03/25 11:06:23;;;;;;;23.30;17.17;;;16.40;99.90;;;;;;5001642;28;20248;-55
2021/03/25 11:08:52;;;;;;;21.77;17.40;;;16.30;99.90;;;;;;4996161;28;20324;-52
2021/03/25 11:11:23;;;;;;;21.67;17.30;;;15.80;99.90;;;;;;4995976;28;20240;-56
2021/03/25 11:13:57;;;;;;;23.10;17.33;;;15.60;99.90;;;;;;5007245;28;20237;-55
2021/03/25 11:16:25;;;;;;;22.73;16.80;;;15.50;99.90;;;;;;4998699;28;20236;-55
2021/03/25 11:18:58;;;;;;;18.97;14.80;;;15.50;99.90;;;;;;4993832;28;20248;-54
2021/03/25 11:21:31;;;;;;;16.00;13.07;;;15.50;99.90;;;;;;4988030;28;20276;-55
2021/03/25 11:24:10;;;;;;;19.57;13.87;;;15.50;99.90;;;;;;4990070;28;20237;-55
2021/03/25 11:26:38;;;;;;;18.93;13.57;;;15.70;99.90;;;;;;5002105;28;20364;-51
2021/03/25 11:29:07;;;;;;;17.30;12.77;;;15.80;99.90;;;;;;4995097;28;20240;-54
2021/03/25 11:31:37;;;;;;;17.60;13.83;;;15.80;99.90;;;;;;5005531;28;20233;-55
2021/03/25 11:34:05;;;;;;;20.33;15.20;;;15.50;99.90;;;;;;4988469;28;20245;-54
2021/03/25 11:36:45;;;;;;;18.13;15.00;;;15.40;99.90;;;;;;4986542;28;20230;-56
2021/03/25 11:39:23;;;;;;;16.97;12.77;;;16.00;99.90;;;;;;4987968;28;20238;-54
2021/03/25 11:41:53;;;;;;;15.20;11.10;;;16.40;99.90;;;;;;5005235;28;20310;-55
2021/03/25 11:44:46;;;;;;;13.17;9.57;;;16.70;99.90;;;;;;5000206;28;20713;-56
2021/03/25 11:47:47;;;;;;;8.03;7.03;;;16.50;99.90;;;;;;5015730;28;20291;-52
2021/03/25 11:50:38;;;;;;;13.37;9.60;;;16.00;99.90;;;;;;4985797;28;20247;-56
2021/03/25 11:53:07;;;;;;;12.33;9.27;;;15.80;99.90;;;;;;4995633;28;20257;-53
2021/03/25 11:55:42;;;;;;;12.90;9.03;;;15.70;99.90;;;;;;4986472;28;20388;-52
2021/03/25 11:58:36;;;;;;;12.60;9.70;;;16.10;99.90;;;;;;4981395;28;20303;-54
2021/03/25 12:01:08;;;;;;;13.23;10.13;;;16.60;99.90;;;;;;4991603;28;20693;-54
2021/03/25 12:03:48;;;;;;;14.90;10.53;;;16.50;99.90;;;;;;4974611;28;20527;-54
2021/03/25 12:06:22;;;;;;;15.80;10.53;;;16.10;99.90;;;;;;4971563;28;20356;-53
2021/03/25 12:09:11;;;;;;;12.43;10.40;;;15.90;99.90;;;;;;4957499;28;20270;-54
2021/03/25 12:11:42;;;;;;;13.53;10.63;;;15.90;99.90;;;;;;4978827;28;20641;-56
2021/03/25 12:14:10;;;;;;;12.93;10.27;;;16.00;99.90;;;;;;4967291;28;20239;-56
2021/03/25 12:16:47;;;;;;;13.83;10.43;;;16.00;99.90;;;;;;4967711;28;20721;-56
2021/03/25 12:19:34;;;;;;;17.20;11.80;;;16.00;99.90;;;;;;4971377;28;20238;-54
2021/03/25 12:22:18;;;;;;;15.57;11.77;;;16.10;99.90;;;;;;4977802;28;20253;-57
2021/03/25 12:24:45;;;;;;;14.07;10.90;;;16.30;99.90;;;;;;4967639;28;20238;-56
2021/03/25 12:27:19;;;;;;;14.03;11.20;;;16.40;99.90;;;;;;4970464;28;20330;-57
2021/03/25 12:29:46;;;;;;;14.67;12.03;;;16.50;99.90;;;;;;4970325;28;20329;-55
2021/03/25 12:32:14;;;;;;;14.83;11.90;;;16.70;99.90;;;;;;4996724;28;20236;-56
2021/03/25 12:35:02;;;;;;;15.97;11.17;;;16.80;99.90;;;;;;5001021;28;20237;-57
2021/03/25 12:37:30;;;;;;;15.87;12.37;;;16.60;99.90;;;;;;5000781;28;20756;-54
2021/03/25 12:39:58;;;;;;;16.13;12.40;;;16.30;99.90;;;;;;4999359;28;20358;-56
2021/03/25 12:42:26;;;;;;;13.43;11.83;;;16.20;99.90;;;;;;4999951;28;20287;-53
2021/03/25 12:44:56;;;;;;;16.30;13.07;;;16.20;99.90;;;;;;4998664;28;20237;-53
2021/03/25 12:47:24;;;;;;;16.60;12.33;;;16.30;99.90;;;;;;5003001;28;20225;-56
2021/03/25 12:49:59;;;;;;;19.03;12.33;;;16.30;99.90;;;;;;5002551;28;20253;-57
2021/03/25 12:52:28;;;;;;;17.20;13.43;;;16.40;99.90;;;;;;5006501;28;20728;-57
2021/03/25 12:54:56;;;;;;;14.47;12.60;;;16.40;99.90;;;;;;5005708;28;20735;-56
2021/03/25 12:57:27;;;;;;;15.00;11.97;;;16.40;99.90;;;;;;5004737;28;20251;-57
2021/03/25 12:59:58;;;;;;;14.93;12.10;;;16.40;99.90;;;;;;5002760;28;20651;-57
2021/03/25 13:02:26;;;;;;;16.83;12.10;;;16.40;99.90;;;;;;4997304;28;20237;-55
2021/03/25 13:04:54;;;;;;;17.57;13.60;;;16.30;99.90;;;;;;4993978;28;20256;-57
2021/03/25 13:07:21;;;;;;;17.30;13.03;;;16.20;99.90;;;;;;4993875;28;20253;-57
2021/03/25 13:09:49;;;;;;;18.20;13.00;;;16.20;99.90;;;;;;4986591;28;20316;-56
2021/03/25 13:12:22;;;;;;;20.10;13.83;;;16.30;99.90;;;;;;5003313;28;20241;-54
2021/03/25 13:14:51;;;;;;;15.93;12.23;;;16.10;99.90;;;;;;4984637;28;20230;-55
2021/03/25 13:17:19;;;;;;;17.37;13.30;;;16.10;99.90;;;;;;4986583;28;20230;-56
2021/03/25 13:19:56;;;;;;;16.47;12.33;;;16.00;99.90;;;;;;4975653;28;20246;-56
2021/03/25 13:22:25;;;;;;;17.07;12.70;;;16.00;99.90;;;;;;4990469;28;20320;-55
2021/03/25 13:24:53;;;;;;;17.63;12.27;;;16.00;99.90;;;;;;5004675;28;20271;-53
2021/03/25 13:27:21;;;;;;;18.40;12.47;;;16.00;99.90;;;;;;5004989;28;20779;-56